Thursday, July 19, 2018, 1:19 PM EDT
Back to Local

KPTW, Pottstown Limerick Airport

Location: Royersford, PA, United States Lat: 40.233
Local Time: 1:19 PM EDT (17:19 GMT) Lon: -75.55
Time Zone: US/Eastern Elev: 291 ft

Show me the last for .
Show Decoded

2018-07-19 12:54 METAR KPTW 191654Z AUTO 02006KT 10SM CLR 25/10 A3013 RMK AO2 SLP197 T02500100 =
2018-07-19 11:54 METAR KPTW 191554Z AUTO 00000KT 10SM CLR 23/11 A3014 RMK AO2 SLP202 T02330111 =
2018-07-19 10:54 METAR KPTW 191454Z AUTO VRB03KT 10SM CLR 22/12 A3014 RMK AO2 SLP201 T02220117
                 50008 =
2018-07-19 09:54 METAR KPTW 191354Z AUTO 09005KT 10SM CLR 21/12 A3014 RMK AO2 SLP201 T02060117 =
2018-07-19 08:54 METAR KPTW 191254Z AUTO 36004KT 10SM CLR 19/11 A3013 RMK AO2 SLP200 T01940106 =
2018-07-19 07:54 METAR KPTW 191154Z AUTO 32004KT 10SM CLR 17/09 A3011 RMK AO2 SLP193 T01720094
                 10172 20122 51009 =
2018-07-19 06:54 METAR KPTW 191054Z AUTO 33004KT 10SM CLR 15/11 A3011 RMK AO2 SLP191 T01500106 =
2018-07-19 05:54 METAR KPTW 190954Z AUTO 00000KT 9SM CLR 13/12 A3010 RMK AO2 SLP187 T01280117 =
2018-07-19 04:54 METAR KPTW 190854Z AUTO 00000KT 10SM CLR 14/12 A3009 RMK AO2 SLP184 T01390122
                 51007 =
2018-07-19 03:54 METAR KPTW 190754Z AUTO 00000KT 10SM CLR 15/13 A3008 RMK AO2 SLP181 T01500128 =
2018-07-19 02:54 METAR KPTW 190654Z AUTO 00000KT 10SM CLR 15/13 A3007 RMK AO2 SLP180 T01500128 =
2018-07-19 01:54 METAR KPTW 190554Z AUTO 00000KT 10SM CLR 16/12 A3006 RMK AO2 SLP176 T01560122
                 10250 20156 53015 =
2018-07-19 00:54 METAR KPTW 190454Z AUTO 03004KT 10SM CLR 18/11 A3005 RMK AO2 SLP169 T01830106
                 402780178 =
2018-07-18 23:54 METAR KPTW 190354Z AUTO 02005KT 10SM CLR 19/11 A3003 RMK AO2 SLP163 T01940106 =
2018-07-18 22:54 METAR KPTW 190254Z AUTO 03005KT 10SM CLR 20/11 A3002 RMK AO2 SLP160 T02000111
                 51017 =
2018-07-18 21:54 METAR KPTW 190154Z AUTO 02005KT 10SM CLR 22/12 A3001 RMK AO2 SLP156 T02170117 =
2018-07-18 20:54 METAR KPTW 190054Z AUTO 01004KT 10SM CLR 23/13 A2998 RMK AO2 SLP149 T02280128 =
2018-07-18 19:54 METAR KPTW 182354Z AUTO 00000KT 10SM CLR 25/13 A2997 RMK AO2 SLP143 T02500133
                 10278 20244 53008 =
2018-07-18 18:54 METAR KPTW 182254Z AUTO 35005KT 10SM CLR 27/13 A2995 RMK AO2 SLP138 T02670133 =
2018-07-18 17:54 METAR KPTW 182154Z AUTO 36007KT 9SM CLR 27/13 A2994 RMK AO2 SLP134 T02720133 =
2018-07-18 16:54 METAR KPTW 182054Z AUTO 31007KT 10SM CLR 27/13 A2994 RMK AO2 SLP135 T02720128
                 58003 =
2018-07-18 15:54 METAR KPTW 181954Z AUTO 32006KT 10SM CLR 28/14 A2995 RMK AO2 SLP136 T02780144 =
2018-07-18 14:54 METAR KPTW 181854Z AUTO 34008KT 9SM FEW080 27/14 A2996 RMK AO2 SLP139 T02720144
                 =
2018-07-18 13:54 METAR KPTW 181754Z AUTO 35010KT 9SM SCT055 BKN070 BKN085 27/15 A2995 RMK AO2
                 SLP138 T02670150 10272 20206 55003 =

Support USWX by starting your Amazon purchase here.